sensor_id;sensor_type;location;lat;lon;timestamp;pressure;altitude;pressure_sealevel;temperature;humidity
76464;BME280;65301;46.666;20.110;2022-12-07T00:00:15;100906.69;;;0.60;86.80
76464;BME280;65301;46.666;20.110;2022-12-07T00:03:17;100909.19;;;0.55;87.54
76464;BME280;65301;46.666;20.110;2022-12-07T00:06:19;100900.72;;;0.59;87.78
76464;BME280;65301;46.666;20.110;2022-12-07T00:09:21;100893.56;;;0.66;88.27
76464;BME280;65301;46.666;20.110;2022-12-07T00:12:23;100903.84;;;0.61;88.09
76464;BME280;65301;46.666;20.110;2022-12-07T00:15:25;100892.88;;;0.71;89.51
76464;BME280;65301;46.666;20.110;2022-12-07T00:18:26;100883.56;;;0.75;89.13
76464;BME280;65301;46.666;20.110;2022-12-07T00:21:31;100889.56;;;0.76;89.65
76464;BME280;65301;46.666;20.110;2022-12-07T00:24:33;100893.44;;;0.73;89.55
76464;BME280;65301;46.666;20.110;2022-12-07T00:27:35;100891.84;;;0.72;89.76
76464;BME280;65301;46.666;20.110;2022-12-07T00:30:37;100896.13;;;0.78;89.49
76464;BME280;65301;46.666;20.110;2022-12-07T00:33:38;100893.28;;;0.80;89.64
76464;BME280;65301;46.666;20.110;2022-12-07T00:36:40;100895.13;;;0.79;89.56
76464;BME280;65301;46.666;20.110;2022-12-07T00:39:42;100882.56;;;0.76;89.30
76464;BME280;65301;46.666;20.110;2022-12-07T00:42:43;100886.66;;;0.72;89.08
76464;BME280;65301;46.666;20.110;2022-12-07T00:45:45;100890.06;;;0.61;89.58
76464;BME280;65301;46.666;20.110;2022-12-07T00:48:48;100885.25;;;0.53;89.37
76464;BME280;65301;46.666;20.110;2022-12-07T00:51:50;100890.00;;;0.44;89.39
76464;BME280;65301;46.666;20.110;2022-12-07T00:54:52;100884.59;;;0.34;89.57
76464;BME280;65301;46.666;20.110;2022-12-07T00:57:53;100875.91;;;0.40;89.41
76464;BME280;65301;46.666;20.110;2022-12-07T01:00:59;100869.66;;;0.41;89.35
76464;BME280;65301;46.666;20.110;2022-12-07T01:04:02;100880.66;;;0.43;89.03
76464;BME280;65301;46.666;20.110;2022-12-07T01:07:04;100870.16;;;0.38;88.72
76464;BME280;65301;46.666;20.110;2022-12-07T01:10:07;100859.50;;;0.40;89.90
76464;BME280;65301;46.666;20.110;2022-12-07T01:13:09;100869.78;;;0.46;89.46
76464;BME280;65301;46.666;20.110;2022-12-07T01:16:13;100865.38;;;0.47;89.07
76464;BME280;65301;46.666;20.110;2022-12-07T01:19:15;100866.03;;;0.54;88.97
76464;BME280;65301;46.666;20.110;2022-12-07T01:22:17;100859.63;;;0.45;88.36
76464;BME280;65301;46.666;20.110;2022-12-07T01:25:18;100854.47;;;0.33;88.96
76464;BME280;65301;46.666;20.110;2022-12-07T01:28:20;100862.34;;;0.38;88.82
76464;BME280;65301;46.666;20.110;2022-12-07T01:31:24;100860.09;;;0.30;88.97
76464;BME280;65301;46.666;20.110;2022-12-07T01:34:26;100853.66;;;0.33;89.85
76464;BME280;65301;46.666;20.110;2022-12-07T01:37:27;100842.69;;;0.42;89.62
76464;BME280;65301;46.666;20.110;2022-12-07T01:40:29;100849.44;;;0.55;89.76
76464;BME280;65301;46.666;20.110;2022-12-07T01:43:33;100851.53;;;0.58;89.36
76464;BME280;65301;46.666;20.110;2022-12-07T01:46:35;100863.38;;;0.65;89.60
76464;BME280;65301;46.666;20.110;2022-12-07T01:49:39;100857.22;;;0.83;87.84
76464;BME280;65301;46.666;20.110;2022-12-07T01:52:44;100856.81;;;0.75;87.40
76464;BME280;65301;46.666;20.110;2022-12-07T01:55:49;100852.63;;;0.74;86.49
76464;BME280;65301;46.666;20.110;2022-12-07T01:58:54;100852.56;;;0.85;87.57
76464;BME280;65301;46.666;20.110;2022-12-07T02:01:59;100862.06;;;0.91;86.50
76464;BME280;65301;46.666;20.110;2022-12-07T02:05:04;100860.38;;;0.85;85.26
76464;BME280;65301;46.666;20.110;2022-12-07T02:08:06;100855.69;;;0.71;86.56
76464;BME280;65301;46.666;20.110;2022-12-07T02:11:09;100853.47;;;0.62;86.98
76464;BME280;65301;46.666;20.110;2022-12-07T02:14:11;100844.63;;;0.63;86.70
76464;BME280;65301;46.666;20.110;2022-12-07T02:17:25;100851.22;;;0.54;88.24
76464;BME280;65301;46.666;20.110;2022-12-07T02:20:34;100838.78;;;0.56;87.15
76464;BME280;65301;46.666;20.110;2022-12-07T02:24:03;100837.88;;;0.62;86.47
76464;BME280;65301;46.666;20.110;2022-12-07T02:27:37;100844.78;;;0.57;86.50
76464;BME280;65301;46.666;20.110;2022-12-07T02:30:45;100833.13;;;0.59;87.31
76464;BME280;65301;46.666;20.110;2022-12-07T02:34:01;100838.44;;;0.64;85.46
76464;BME280;65301;46.666;20.110;2022-12-07T02:37:17;100842.13;;;0.68;86.11
76464;BME280;65301;46.666;20.110;2022-12-07T02:40:31;100852.13;;;0.60;84.89
76464;BME280;65301;46.666;20.110;2022-12-07T02:43:39;100846.63;;;0.45;85.87
76464;BME280;65301;46.666;20.110;2022-12-07T02:46:44;100842.56;;;0.37;87.19
76464;BME280;65301;46.666;20.110;2022-12-07T02:49:49;100833.19;;;0.36;87.36
76464;BME280;65301;46.666;20.110;2022-12-07T02:52:51;100835.56;;;0.38;87.24
76464;BME280;65301;46.666;20.110;2022-12-07T02:55:52;100836.00;;;0.46;86.24
76464;BME280;65301;46.666;20.110;2022-12-07T02:59:17;100835.44;;;0.44;86.05
76464;BME280;65301;46.666;20.110;2022-12-07T03:02:48;100832.03;;;0.44;85.84
76464;BME280;65301;46.666;20.110;2022-12-07T03:06:06;100842.69;;;0.42;86.61
76464;BME280;65301;46.666;20.110;2022-12-07T03:09:16;100842.91;;;0.41;86.54
76464;BME280;65301;46.666;20.110;2022-12-07T03:12:26;100835.19;;;0.57;87.15
76464;BME280;65301;46.666;20.110;2022-12-07T03:15:34;100836.69;;;0.70;85.19
76464;BME280;65301;46.666;20.110;2022-12-07T03:18:46;100834.88;;;0.71;84.68
76464;BME280;65301;46.666;20.110;2022-12-07T03:21:55;100834.88;;;0.71;85.06
76464;BME280;65301;46.666;20.110;2022-12-07T03:25:00;100821.63;;;0.55;84.03
76464;BME280;65301;46.666;20.110;2022-12-07T03:28:05;100838.59;;;0.46;85.53
76464;BME280;65301;46.666;20.110;2022-12-07T03:31:17;100836.38;;;0.38;86.48
76464;BME280;65301;46.666;20.110;2022-12-07T03:34:32;100836.31;;;0.22;87.22
76464;BME280;65301;46.666;20.110;2022-12-07T03:37:43;100836.72;;;0.30;87.21
76464;BME280;65301;46.666;20.110;2022-12-07T03:41:05;100827.78;;;0.38;87.43
76464;BME280;65301;46.666;20.110;2022-12-07T03:44:08;100828.09;;;0.41;85.54
76464;BME280;65301;46.666;20.110;2022-12-07T03:50:52;100820.31;;;0.41;85.80
76464;BME280;65301;46.666;20.110;2022-12-07T03:54:05;100827.00;;;0.37;84.13
76464;BME280;65301;46.666;20.110;2022-12-07T03:57:11;100823.06;;;0.23;86.10
76464;BME280;65301;46.666;20.110;2022-12-07T04:00:15;100816.78;;;0.19;86.05
76464;BME280;65301;46.666;20.110;2022-12-07T04:03:17;100815.53;;;0.22;86.54
76464;BME280;65301;46.666;20.110;2022-12-07T04:06:19;100818.84;;;0.34;86.25
76464;BME280;65301;46.666;20.110;2022-12-07T04:09:21;100810.69;;;0.42;85.46
76464;BME280;65301;46.666;20.110;2022-12-07T04:12:23;100820.28;;;0.53;85.91
76464;BME280;65301;46.666;20.110;2022-12-07T04:15:25;100807.06;;;0.54;85.70
76464;BME280;65301;46.666;20.110;2022-12-07T04:18:26;100808.84;;;0.54;85.66
76464;BME280;65301;46.666;20.110;2022-12-07T04:21:28;100797.81;;;0.47;85.02
76464;BME280;65301;46.666;20.110;2022-12-07T04:24:30;100800.66;;;0.34;86.34
76464;BME280;65301;46.666;20.110;2022-12-07T04:27:31;100801.59;;;0.28;86.85
76464;BME280;65301;46.666;20.110;2022-12-07T04:30:34;100796.16;;;0.29;87.01
76464;BME280;65301;46.666;20.110;2022-12-07T04:33:35;100806.44;;;0.36;86.07
76464;BME280;65301;46.666;20.110;2022-12-07T04:36:38;100807.94;;;0.20;85.90
76464;BME280;65301;46.666;20.110;2022-12-07T04:39:40;100801.19;;;0.19;85.92
76464;BME280;65301;46.666;20.110;2022-12-07T04:42:42;100805.44;;;0.25;86.51
76464;BME280;65301;46.666;20.110;2022-12-07T04:45:47;100805.44;;;0.25;85.81
76464;BME280;65301;46.666;20.110;2022-12-07T04:48:50;100805.44;;;0.25;85.48
76464;BME280;65301;46.666;20.110;2022-12-07T04:51:52;100804.94;;;0.12;86.92
76464;BME280;65301;46.666;20.110;2022-12-07T04:54:53;100807.28;;;0.13;86.58
76464;BME280;65301;46.666;20.110;2022-12-07T04:57:55;100800.06;;;0.15;85.19
76464;BME280;65301;46.666;20.110;2022-12-07T05:00:57;100802.09;;;0.13;85.33
76464;BME280;65301;46.666;20.110;2022-12-07T05:03:58;100799.19;;;0.10;85.73
76464;BME280;65301;46.666;20.110;2022-12-07T05:07:00;100799.84;;;0.05;85.84
76464;BME280;65301;46.666;20.110;2022-12-07T05:10:02;100805.16;;;-0.02;86.00
76464;BME280;65301;46.666;20.110;2022-12-07T05:13:04;100808.22;;;-0.05;87.19
76464;BME280;65301;46.666;20.110;2022-12-07T05:16:06;100806.28;;;0.03;87.22
76464;BME280;65301;46.666;20.110;2022-12-07T05:19:10;100795.91;;;0.03;86.57
76464;BME280;65301;46.666;20.110;2022-12-07T05:22:12;100800.63;;;0.06;87.66
76464;BME280;65301;46.666;20.110;2022-12-07T05:25:14;100799.38;;;0.08;87.97
76464;BME280;65301;46.666;20.110;2022-12-07T05:28:16;100799.97;;;-0.02;88.75
76464;BME280;65301;46.666;20.110;2022-12-07T05:31:18;100800.31;;;0.02;88.23
76464;BME280;65301;46.666;20.110;2022-12-07T05:34:20;100803.38;;;-0.01;88.91
76464;BME280;65301;46.666;20.110;2022-12-07T05:37:22;100800.56;;;-0.11;89.74
76464;BME280;65301;46.666;20.110;2022-12-07T05:40:23;100782.28;;;-0.28;89.59
76464;BME280;65301;46.666;20.110;2022-12-07T05:43:25;100778.78;;;-0.22;88.86
76464;BME280;65301;46.666;20.110;2022-12-07T05:46:27;100774.94;;;-0.19;89.13
76464;BME280;65301;46.666;20.110;2022-12-07T05:49:29;100781.16;;;-0.20;89.20
76464;BME280;65301;46.666;20.110;2022-12-07T05:52:30;100773.69;;;-0.17;89.54
76464;BME280;65301;46.666;20.110;2022-12-07T05:55:32;100770.53;;;-0.19;89.05
76464;BME280;65301;46.666;20.110;2022-12-07T05:58:34;100790.41;;;-0.13;88.36
76464;BME280;65301;46.666;20.110;2022-12-07T06:01:57;100791.31;;;-0.19;89.44
76464;BME280;65301;46.666;20.110;2022-12-07T06:04:59;100794.56;;;-0.12;89.32
76464;BME280;65301;46.666;20.110;2022-12-07T06:08:01;100807.88;;;0.04;88.07
76464;BME280;65301;46.666;20.110;2022-12-07T06:11:06;100818.13;;;0.10;87.50
76464;BME280;65301;46.666;20.110;2022-12-07T06:14:26;100814.25;;;0.24;88.64
76464;BME280;65301;46.666;20.110;2022-12-07T06:17:28;100816.03;;;0.35;86.31
76464;BME280;65301;46.666;20.110;2022-12-07T06:20:30;100815.00;;;0.36;85.46
76464;BME280;65301;46.666;20.110;2022-12-07T06:23:31;100813.91;;;0.32;86.32
76464;BME280;65301;46.666;20.110;2022-12-07T06:26:33;100816.50;;;0.32;87.48
76464;BME280;65301;46.666;20.110;2022-12-07T06:29:35;100826.16;;;0.48;86.44
76464;BME280;65301;46.666;20.110;2022-12-07T06:32:37;100814.75;;;0.49;84.40
76464;BME280;65301;46.666;20.110;2022-12-07T06:35:40;100826.25;;;0.53;83.33
76464;BME280;65301;46.666;20.110;2022-12-07T06:38:52;100827.34;;;0.41;84.37
76464;BME280;65301;46.666;20.110;2022-12-07T06:41:54;100833.34;;;0.58;83.40
76464;BME280;65301;46.666;20.110;2022-12-07T06:45:10;100836.88;;;0.52;84.50
76464;BME280;65301;46.666;20.110;2022-12-07T06:48:11;100846.47;;;0.51;83.56
76464;BME280;65301;46.666;20.110;2022-12-07T06:51:13;100852.28;;;0.70;83.83
76464;BME280;65301;46.666;20.110;2022-12-07T06:54:16;100855.56;;;0.77;82.91
76464;BME280;65301;46.666;20.110;2022-12-07T06:57:18;100858.16;;;0.77;81.60
76464;BME280;65301;46.666;20.110;2022-12-07T07:00:21;100861.53;;;0.78;82.48
76464;BME280;65301;46.666;20.110;2022-12-07T07:03:23;100856.81;;;0.75;81.62
76464;BME280;65301;46.666;20.110;2022-12-07T07:06:28;100863.13;;;0.79;82.06
76464;BME280;65301;46.666;20.110;2022-12-07T07:09:30;100857.81;;;0.74;81.58
76464;BME280;65301;46.666;20.110;2022-12-07T07:12:31;100860.19;;;0.75;82.73
76464;BME280;65301;46.666;20.110;2022-12-07T07:15:33;100860.22;;;0.92;82.81
76464;BME280;65301;46.666;20.110;2022-12-07T07:18:36;100863.44;;;1.10;81.69
76464;BME280;65301;46.666;20.110;2022-12-07T07:21:37;100862.09;;;1.24;82.38
76464;BME280;65301;46.666;20.110;2022-12-07T07:24:39;100857.28;;;1.50;82.36
76464;BME280;65301;46.666;20.110;2022-12-07T07:27:41;100877.16;;;1.89;80.19
76464;BME280;65301;46.666;20.110;2022-12-07T07:30:43;100872.63;;;2.01;81.45
76464;BME280;65301;46.666;20.110;2022-12-07T07:33:46;100876.97;;;2.12;80.92
76464;BME280;65301;46.666;20.110;2022-12-07T07:36:48;100872.19;;;2.26;81.02
76464;BME280;65301;46.666;20.110;2022-12-07T07:39:49;100860.16;;;2.46;79.90
76464;BME280;65301;46.666;20.110;2022-12-07T07:42:52;100871.72;;;2.50;79.85
76464;BME280;65301;46.666;20.110;2022-12-07T07:45:54;100873.75;;;2.48;79.96
76464;BME280;65301;46.666;20.110;2022-12-07T07:48:57;100864.63;;;2.46;79.90
76464;BME280;65301;46.666;20.110;2022-12-07T07:52:16;100877.75;;;2.56;80.06
76464;BME280;65301;46.666;20.110;2022-12-07T07:55:17;100874.38;;;2.55;79.86
76464;BME280;65301;46.666;20.110;2022-12-07T07:58:20;100876.34;;;2.48;80.24
76464;BME280;65301;46.666;20.110;2022-12-07T08:01:22;100873.47;;;2.45;79.87
76464;BME280;65301;46.666;20.110;2022-12-07T08:04:23;100875.53;;;2.43;80.03
76464;BME280;65301;46.666;20.110;2022-12-07T08:07:27;100876.00;;;2.40;81.23
76464;BME280;65301;46.666;20.110;2022-12-07T08:10:29;100866.66;;;2.44;80.73
76464;BME280;65301;46.666;20.110;2022-12-07T08:13:33;100871.66;;;2.45;81.05
76464;BME280;65301;46.666;20.110;2022-12-07T08:16:35;100879.56;;;3.04;80.48
76464;BME280;65301;46.666;20.110;2022-12-07T08:19:36;100865.84;;;3.82;76.71
76464;BME280;65301;46.666;20.110;2022-12-07T08:22:38;100867.13;;;4.21;75.39
76464;BME280;65301;46.666;20.110;2022-12-07T08:25:40;100872.06;;;4.23;75.74
76464;BME280;65301;46.666;20.110;2022-12-07T08:28:42;100865.22;;;4.07;76.10
76464;BME280;65301;46.666;20.110;2022-12-07T08:31:44;100873.28;;;4.00;76.50
76464;BME280;65301;46.666;20.110;2022-12-07T08:34:46;100871.69;;;4.46;75.30
76464;BME280;65301;46.666;20.110;2022-12-07T08:37:47;100874.31;;;4.61;74.89
76464;BME280;65301;46.666;20.110;2022-12-07T08:40:56;100873.03;;;4.68;75.34
76464;BME280;65301;46.666;20.110;2022-12-07T08:43:58;100870.03;;;5.37;72.99
76464;BME280;65301;46.666;20.110;2022-12-07T08:47:02;100876.06;;;5.37;72.76
76464;BME280;65301;46.666;20.110;2022-12-07T08:50:07;100873.94;;;5.24;72.81
76464;BME280;65301;46.666;20.110;2022-12-07T08:53:10;100891.75;;;5.17;73.32
76464;BME280;65301;46.666;20.110;2022-12-07T08:56:12;100888.06;;;5.18;74.57
76464;BME280;65301;46.666;20.110;2022-12-07T08:59:14;100886.00;;;5.46;75.26
76464;BME280;65301;46.666;20.110;2022-12-07T09:02:17;100886.75;;;6.07;73.17
76464;BME280;65301;46.666;20.110;2022-12-07T09:05:19;100876.75;;;6.09;71.57
76464;BME280;65301;46.666;20.110;2022-12-07T09:08:22;100876.22;;;6.17;73.06
76464;BME280;65301;46.666;20.110;2022-12-07T09:11:39;100874.00;;;6.49;72.27
76464;BME280;65301;46.666;20.110;2022-12-07T09:15:23;100875.94;;;6.23;72.17
76464;BME280;65301;46.666;20.110;2022-12-07T09:19:17;100862.63;;;5.99;72.83
76464;BME280;65301;46.666;20.110;2022-12-07T09:22:19;100865.00;;;5.91;72.71
76464;BME280;65301;46.666;20.110;2022-12-07T09:25:21;100867.34;;;5.82;72.96
76464;BME280;65301;46.666;20.110;2022-12-07T09:28:23;100868.91;;;5.83;73.34
76464;BME280;65301;46.666;20.110;2022-12-07T09:31:25;100862.13;;;5.87;73.55
76464;BME280;65301;46.666;20.110;2022-12-07T09:34:31;100871.28;;;5.80;73.17
76464;BME280;65301;46.666;20.110;2022-12-07T09:37:33;100858.94;;;6.00;71.50
76464;BME280;65301;46.666;20.110;2022-12-07T09:40:38;100854.44;;;7.14;68.89
76464;BME280;65301;46.666;20.110;2022-12-07T09:44:09;100855.59;;;8.41;65.38
76464;BME280;65301;46.666;20.110;2022-12-07T09:47:11;100851.50;;;8.06;65.40
76464;BME280;65301;46.666;20.110;2022-12-07T09:50:16;100840.75;;;7.79;65.66
76464;BME280;65301;46.666;20.110;2022-12-07T09:53:28;100844.06;;;7.66;66.59
76464;BME280;65301;46.666;20.110;2022-12-07T09:56:30;100847.53;;;7.28;67.59
76464;BME280;65301;46.666;20.110;2022-12-07T09:59:32;100841.25;;;7.24;68.18
76464;BME280;65301;46.666;20.110;2022-12-07T10:02:39;100841.41;;;7.04;69.44
76464;BME280;65301;46.666;20.110;2022-12-07T10:05:45;100840.81;;;7.46;70.06
76464;BME280;65301;46.666;20.110;2022-12-07T10:08:50;100829.44;;;7.79;68.12
76464;BME280;65301;46.666;20.110;2022-12-07T10:12:00;100816.56;;;9.50;61.31
76464;BME280;65301;46.666;20.110;2022-12-07T10:15:05;100821.19;;;10.76;56.47
76464;BME280;65301;46.666;20.110;2022-12-07T10:21:37;100818.63;;;12.89;51.31
76464;BME280;65301;46.666;20.110;2022-12-07T10:24:41;100810.44;;;13.54;49.44
76464;BME280;65301;46.666;20.110;2022-12-07T10:27:57;100816.59;;;13.75;47.79
76464;BME280;65301;46.666;20.110;2022-12-07T10:31:02;100810.28;;;13.88;46.94
76464;BME280;65301;46.666;20.110;2022-12-07T10:34:20;100813.38;;;14.49;44.77
76464;BME280;65301;46.666;20.110;2022-12-07T10:37:23;100799.47;;;14.23;45.30
76464;BME280;65301;46.666;20.110;2022-12-07T10:40:35;100786.09;;;14.60;44.45
76464;BME280;65301;46.666;20.110;2022-12-07T10:43:51;100786.53;;;13.92;44.81
76464;BME280;65301;46.666;20.110;2022-12-07T10:57:08;100788.63;;;13.40;46.13
76464;BME280;65301;46.666;20.110;2022-12-07T11:10:29;100783.00;;;15.24;43.61
76464;BME280;65301;46.666;20.110;2022-12-07T11:13:42;100789.66;;;15.30;42.41
76464;BME280;65301;46.666;20.110;2022-12-07T11:17:04;100777.06;;;14.94;43.03
76464;BME280;65301;46.666;20.110;2022-12-07T11:23:31;100779.75;;;15.75;41.31
76464;BME280;65301;46.666;20.110;2022-12-07T11:27:00;100768.84;;;15.44;42.15
76464;BME280;65301;46.666;20.110;2022-12-07T11:30:23;100768.09;;;15.56;43.12
76464;BME280;65301;46.666;20.110;2022-12-07T11:33:52;100755.06;;;15.30;43.20
76464;BME280;65301;46.666;20.110;2022-12-07T11:36:56;100751.25;;;15.88;40.83
76464;BME280;65301;46.666;20.110;2022-12-07T11:43:26;100752.69;;;15.85;41.45
76464;BME280;65301;46.666;20.110;2022-12-07T11:46:59;100739.34;;;16.10;40.61
76464;BME280;65301;46.666;20.110;2022-12-07T11:50:14;100747.38;;;14.72;43.67
76464;BME280;65301;46.666;20.110;2022-12-07T11:53:26;100753.31;;;14.36;44.75
76464;BME280;65301;46.666;20.110;2022-12-07T11:56:34;100746.50;;;14.47;45.82
76464;BME280;65301;46.666;20.110;2022-12-07T11:59:39;100756.44;;;13.79;46.86
76464;BME280;65301;46.666;20.110;2022-12-07T12:02:55;100747.88;;;14.03;47.34
76464;BME280;65301;46.666;20.110;2022-12-07T12:05:59;100736.78;;;14.84;45.18
76464;BME280;65301;46.666;20.110;2022-12-07T12:09:05;100737.88;;;15.15;43.94
76464;BME280;65301;46.666;20.110;2022-12-07T12:12:40;100736.28;;;15.83;43.24
76464;BME280;65301;46.666;20.110;2022-12-07T12:16:10;100737.16;;;15.63;42.31
76464;BME280;65301;46.666;20.110;2022-12-07T12:19:24;100725.28;;;15.49;42.65
76464;BME280;65301;46.666;20.110;2022-12-07T12:22:40;100731.34;;;15.25;42.91
76464;BME280;65301;46.666;20.110;2022-12-07T12:25:48;100719.63;;;14.93;44.36
76464;BME280;65301;46.666;20.110;2022-12-07T12:29:05;100720.91;;;15.20;42.77
76464;BME280;65301;46.666;20.110;2022-12-07T12:32:40;100715.13;;;14.40;44.02
76464;BME280;65301;46.666;20.110;2022-12-07T12:43:51;100719.44;;;13.54;46.21
76464;BME280;65301;46.666;20.110;2022-12-07T12:47:03;100715.56;;;13.72;46.32
76464;BME280;65301;46.666;20.110;2022-12-07T12:50:36;100722.19;;;13.86;46.77
76464;BME280;65301;46.666;20.110;2022-12-07T12:53:40;100711.88;;;12.63;49.22
76464;BME280;65301;46.666;20.110;2022-12-07T13:02:51;100724.09;;;11.34;53.95
76464;BME280;65301;46.666;20.110;2022-12-07T13:09:24;100725.13;;;12.46;51.18
76464;BME280;65301;46.666;20.110;2022-12-07T13:12:27;100724.34;;;12.62;50.25
76464;BME280;65301;46.666;20.110;2022-12-07T13:15:36;100726.19;;;12.02;52.13
76464;BME280;65301;46.666;20.110;2022-12-07T13:18:39;100723.78;;;11.35;54.23
76464;BME280;65301;46.666;20.110;2022-12-07T13:21:42;100734.56;;;10.86;55.20
76464;BME280;65301;46.666;20.110;2022-12-07T13:24:46;100724.22;;;10.54;56.83
76464;BME280;65301;46.666;20.110;2022-12-07T13:28:01;100723.72;;;10.30;57.23
76464;BME280;65301;46.666;20.110;2022-12-07T13:31:33;100720.56;;;9.92;58.72
76464;BME280;65301;46.666;20.110;2022-12-07T13:34:40;100706.03;;;9.67;59.75
76464;BME280;65301;46.666;20.110;2022-12-07T13:37:42;100712.19;;;9.49;59.82
76464;BME280;65301;46.666;20.110;2022-12-07T13:41:22;100716.16;;;9.19;61.66
76464;BME280;65301;46.666;20.110;2022-12-07T13:44:21;100719.44;;;8.98;62.73
76464;BME280;65301;46.666;20.110;2022-12-07T13:47:44;100724.53;;;8.76;64.04
76464;BME280;65301;46.666;20.110;2022-12-07T13:50:55;100724.03;;;8.73;64.79
76464;BME280;65301;46.666;20.110;2022-12-07T13:54:09;100720.59;;;8.59;64.70
76464;BME280;65301;46.666;20.110;2022-12-07T13:57:11;100718.09;;;8.49;66.54
76464;BME280;65301;46.666;20.110;2022-12-07T14:00:16;100730.84;;;8.42;67.08
76464;BME280;65301;46.666;20.110;2022-12-07T14:03:27;100726.13;;;8.39;66.58
76464;BME280;65301;46.666;20.110;2022-12-07T14:06:29;100731.56;;;8.29;67.11
76464;BME280;65301;46.666;20.110;2022-12-07T14:09:31;100732.16;;;8.21;66.73
76464;BME280;65301;46.666;20.110;2022-12-07T14:12:36;100730.50;;;8.06;67.61
76464;BME280;65301;46.666;20.110;2022-12-07T14:15:38;100729.09;;;7.95;68.39
76464;BME280;65301;46.666;20.110;2022-12-07T14:18:41;100737.31;;;7.89;68.63
76464;BME280;65301;46.666;20.110;2022-12-07T14:21:46;100732.75;;;7.76;69.74
76464;BME280;65301;46.666;20.110;2022-12-07T14:24:48;100739.94;;;7.65;69.87
76464;BME280;65301;46.666;20.110;2022-12-07T14:27:55;100736.44;;;7.51;70.02
76464;BME280;65301;46.666;20.110;2022-12-07T14:30:59;100734.25;;;7.34;72.19
76464;BME280;65301;46.666;20.110;2022-12-07T14:34:01;100741.88;;;7.31;72.53
76464;BME280;65301;46.666;20.110;2022-12-07T14:37:03;100737.38;;;7.08;73.34
76464;BME280;65301;46.666;20.110;2022-12-07T14:40:11;100749.09;;;6.92;73.82
76464;BME280;65301;46.666;20.110;2022-12-07T14:43:15;100758.84;;;6.86;73.94
76464;BME280;65301;46.666;20.110;2022-12-07T14:46:17;100749.66;;;6.84;72.61
76464;BME280;65301;46.666;20.110;2022-12-07T14:49:20;100757.88;;;6.72;73.12
76464;BME280;65301;46.666;20.110;2022-12-07T14:52:38;100764.88;;;6.48;74.98
76464;BME280;65301;46.666;20.110;2022-12-07T14:56:00;100775.16;;;6.34;75.14
76464;BME280;65301;46.666;20.110;2022-12-07T14:59:02;100773.66;;;6.23;75.88
76464;BME280;65301;46.666;20.110;2022-12-07T15:02:04;100776.81;;;6.15;75.27
76464;BME280;65301;46.666;20.110;2022-12-07T15:05:07;100774.50;;;6.09;75.71
76464;BME280;65301;46.666;20.110;2022-12-07T15:08:16;100771.66;;;6.00;76.80
76464;BME280;65301;46.666;20.110;2022-12-07T15:11:18;100776.38;;;5.98;75.86
76464;BME280;65301;46.666;20.110;2022-12-07T15:14:20;100779.06;;;5.88;76.20
76464;BME280;65301;46.666;20.110;2022-12-07T15:17:21;100775.13;;;5.80;77.30
76464;BME280;65301;46.666;20.110;2022-12-07T15:20:32;100782.19;;;5.75;77.24
76464;BME280;65301;46.666;20.110;2022-12-07T15:23:34;100782.47;;;5.78;76.73
76464;BME280;65301;46.666;20.110;2022-12-07T15:26:36;100785.09;;;5.73;77.24
76464;BME280;65301;46.666;20.110;2022-12-07T15:29:38;100785.09;;;5.68;76.26
76464;BME280;65301;46.666;20.110;2022-12-07T15:32:40;100789.03;;;5.61;76.93
76464;BME280;65301;46.666;20.110;2022-12-07T15:35:44;100788.28;;;5.50;77.46
76464;BME280;65301;46.666;20.110;2022-12-07T15:38:46;100785.41;;;5.42;77.93
76464;BME280;65301;46.666;20.110;2022-12-07T15:42:08;100791.44;;;5.37;77.97
76464;BME280;65301;46.666;20.110;2022-12-07T15:45:10;100796.97;;;5.25;78.60
76464;BME280;65301;46.666;20.110;2022-12-07T15:48:11;100798.28;;;5.18;79.46
76464;BME280;65301;46.666;20.110;2022-12-07T15:51:31;100799.81;;;5.14;79.49
76464;BME280;65301;46.666;20.110;2022-12-07T15:54:33;100799.81;;;5.09;79.15
76464;BME280;65301;46.666;20.110;2022-12-07T15:57:36;100799.28;;;5.02;79.09
76464;BME280;65301;46.666;20.110;2022-12-07T16:00:38;100801.66;;;4.88;79.30
76464;BME280;65301;46.666;20.110;2022-12-07T16:03:40;100801.63;;;4.73;80.05
76464;BME280;65301;46.666;20.110;2022-12-07T16:06:42;100795.06;;;4.60;80.18
76464;BME280;65301;46.666;20.110;2022-12-07T16:09:45;100795.56;;;4.42;80.81
76464;BME280;65301;46.666;20.110;2022-12-07T16:12:47;100810.94;;;4.39;80.58
76464;BME280;65301;46.666;20.110;2022-12-07T16:15:49;100805.16;;;4.22;81.19
76464;BME280;65301;46.666;20.110;2022-12-07T16:18:51;100801.44;;;4.07;81.44
76464;BME280;65301;46.666;20.110;2022-12-07T16:21:53;100819.69;;;3.97;81.75
76464;BME280;65301;46.666;20.110;2022-12-07T16:24:55;100818.38;;;3.95;81.73
76464;BME280;65301;46.666;20.110;2022-12-07T16:27:56;100812.84;;;3.86;81.75
76464;BME280;65301;46.666;20.110;2022-12-07T16:31:07;100815.94;;;3.78;82.58
76464;BME280;65301;46.666;20.110;2022-12-07T16:34:09;100818.56;;;3.78;82.50
76464;BME280;65301;46.666;20.110;2022-12-07T16:37:13;100820.34;;;3.73;81.97
76464;BME280;65301;46.666;20.110;2022-12-07T16:40:15;100823.75;;;3.73;82.24
76464;BME280;65301;46.666;20.110;2022-12-07T16:43:17;100818.94;;;3.60;83.02
76464;BME280;65301;46.666;20.110;2022-12-07T16:46:18;100812.91;;;3.55;82.58
76464;BME280;65301;46.666;20.110;2022-12-07T16:49:20;100819.69;;;3.56;82.44
76464;BME280;65301;46.666;20.110;2022-12-07T16:52:22;100820.53;;;3.61;82.61
76464;BME280;65301;46.666;20.110;2022-12-07T16:55:24;100812.91;;;3.55;81.41
76464;BME280;65301;46.666;20.110;2022-12-07T16:58:25;100826.44;;;3.47;82.09
76464;BME280;65301;46.666;20.110;2022-12-07T17:01:27;100828.50;;;3.45;82.98